sensor_id;sensor_type;location;lat;lon;timestamp;pressure;altitude;pressure_sealevel;temperature;humidity
76864;BME280;65834;52.364;9.754;2023-11-18T00:01:51;101765.34;;;6.47;82.82
76864;BME280;65834;52.364;9.754;2023-11-18T00:04:20;101776.63;;;6.41;83.25
76864;BME280;65834;52.364;9.754;2023-11-18T00:06:50;101788.56;;;6.48;83.33
76864;BME280;65834;52.364;9.754;2023-11-18T00:09:21;101785.41;;;6.22;83.49
76864;BME280;65834;52.364;9.754;2023-11-18T00:11:51;101772.59;;;6.26;83.42
76864;BME280;65834;52.364;9.754;2023-11-18T00:14:23;101797.28;;;6.40;83.18
76864;BME280;65834;52.364;9.754;2023-11-18T00:16:53;101788.31;;;6.51;83.08
76864;BME280;65834;52.364;9.754;2023-11-18T00:19:23;101779.53;;;6.28;83.31
76864;BME280;65834;52.364;9.754;2023-11-18T00:21:52;101762.78;;;6.15;83.63
76864;BME280;65834;52.364;9.754;2023-11-18T00:24:22;101778.38;;;6.21;83.75
76864;BME280;65834;52.364;9.754;2023-11-18T00:26:52;101777.97;;;6.26;83.57
76864;BME280;65834;52.364;9.754;2023-11-18T00:29:24;101769.50;;;6.10;83.34
76864;BME280;65834;52.364;9.754;2023-11-18T00:31:54;101783.75;;;6.21;83.35
76864;BME280;65834;52.364;9.754;2023-11-18T00:34:24;101769.16;;;6.03;83.26
76864;BME280;65834;52.364;9.754;2023-11-18T00:36:53;101760.47;;;5.90;83.84
76864;BME280;65834;52.364;9.754;2023-11-18T00:39:24;101773.56;;;6.04;83.74
76864;BME280;65834;52.364;9.754;2023-11-18T00:41:53;101757.53;;;5.82;83.62
76864;BME280;65834;52.364;9.754;2023-11-18T00:44:26;101770.16;;;6.02;83.55
76864;BME280;65834;52.364;9.754;2023-11-18T00:46:55;101771.28;;;5.99;83.41
76864;BME280;65834;52.364;9.754;2023-11-18T00:49:25;101753.25;;;5.79;83.48
76864;BME280;65834;52.364;9.754;2023-11-18T00:51:55;101774.84;;;5.89;83.81
76864;BME280;65834;52.364;9.754;2023-11-18T00:54:25;101783.16;;;5.86;84.15
76864;BME280;65834;52.364;9.754;2023-11-18T00:56:54;101787.91;;;5.82;84.39
76864;BME280;65834;52.364;9.754;2023-11-18T00:59:27;101795.56;;;5.98;83.85
76864;BME280;65834;52.364;9.754;2023-11-18T01:01:54;101787.66;;;5.96;83.56
76864;BME280;65834;52.364;9.754;2023-11-18T01:04:24;101795.81;;;5.95;83.42
76864;BME280;65834;52.364;9.754;2023-11-18T01:06:54;101805.00;;;5.92;83.63
76864;BME280;65834;52.364;9.754;2023-11-18T01:09:24;101805.59;;;5.85;83.82
76864;BME280;65834;52.364;9.754;2023-11-18T01:11:54;101809.91;;;5.87;84.09
76864;BME280;65834;52.364;9.754;2023-11-18T01:14:37;101803.66;;;5.76;83.61
76864;BME280;65834;52.364;9.754;2023-11-18T01:17:08;101779.41;;;5.66;83.81
76864;BME280;65834;52.364;9.754;2023-11-18T01:19:40;101819.78;;;5.87;83.89
76864;BME280;65834;52.364;9.754;2023-11-18T01:22:10;101801.22;;;5.73;83.60
76864;BME280;65834;52.364;9.754;2023-11-18T01:24:40;101832.28;;;5.97;83.32
76864;BME280;65834;52.364;9.754;2023-11-18T01:27:10;101838.06;;;5.82;83.77
76864;BME280;65834;52.364;9.754;2023-11-18T01:29:42;101822.34;;;5.77;83.73
76864;BME280;65834;52.364;9.754;2023-11-18T01:32:13;101835.25;;;5.83;84.03
76864;BME280;65834;52.364;9.754;2023-11-18T01:34:44;101838.44;;;5.88;83.89
76864;BME280;65834;52.364;9.754;2023-11-18T01:37:17;101837.31;;;5.91;83.94
76864;BME280;65834;52.364;9.754;2023-11-18T01:39:48;101844.41;;;5.92;84.17
76864;BME280;65834;52.364;9.754;2023-11-18T01:42:18;101844.75;;;5.98;84.50
76864;BME280;65834;52.364;9.754;2023-11-18T01:44:50;101843.44;;;5.93;84.66
76864;BME280;65834;52.364;9.754;2023-11-18T01:47:21;101848.63;;;6.06;84.59
76864;BME280;65834;52.364;9.754;2023-11-18T01:49:52;101849.72;;;6.03;84.89
76864;BME280;65834;52.364;9.754;2023-11-18T01:52:23;101845.22;;;6.04;85.15
76864;BME280;65834;52.364;9.754;2023-11-18T01:54:53;101841.16;;;6.09;85.25
76864;BME280;65834;52.364;9.754;2023-11-18T01:57:24;101848.59;;;6.17;85.43
76864;BME280;65834;52.364;9.754;2023-11-18T01:59:57;101836.78;;;6.08;84.82
76864;BME280;65834;52.364;9.754;2023-11-18T02:02:26;101856.28;;;6.21;85.12
76864;BME280;65834;52.364;9.754;2023-11-18T02:04:56;101857.44;;;6.28;85.02
76864;BME280;65834;52.364;9.754;2023-11-18T02:07:28;101847.09;;;6.24;85.01
76864;BME280;65834;52.364;9.754;2023-11-18T02:09:58;101860.13;;;6.28;84.90
76864;BME280;65834;52.364;9.754;2023-11-18T02:12:31;101860.47;;;6.35;84.62
76864;BME280;65834;52.364;9.754;2023-11-18T02:15:10;101830.56;;;6.28;83.93
76864;BME280;65834;52.364;9.754;2023-11-18T02:17:41;101834.44;;;6.35;83.69
76864;BME280;65834;52.364;9.754;2023-11-18T02:20:14;101859.69;;;6.44;83.64
76864;BME280;65834;52.364;9.754;2023-11-18T02:22:48;101831.31;;;6.30;84.24
76864;BME280;65834;52.364;9.754;2023-11-18T02:25:18;101844.53;;;6.43;84.04
76864;BME280;65834;52.364;9.754;2023-11-18T02:27:50;101857.72;;;6.46;84.14
76864;BME280;65834;52.364;9.754;2023-11-18T02:30:20;101829.72;;;6.28;84.23
76864;BME280;65834;52.364;9.754;2023-11-18T02:32:54;101860.16;;;6.49;83.97
76864;BME280;65834;52.364;9.754;2023-11-18T02:35:28;101860.78;;;6.41;84.35
76864;BME280;65834;52.364;9.754;2023-11-18T02:38:02;101861.06;;;6.38;84.01
76864;BME280;65834;52.364;9.754;2023-11-18T02:40:35;101861.66;;;6.42;84.48
76864;BME280;65834;52.364;9.754;2023-11-18T02:43:09;101868.53;;;6.55;84.08
76864;BME280;65834;52.364;9.754;2023-11-18T02:45:40;101864.53;;;6.50;83.66
76864;BME280;65834;52.364;9.754;2023-11-18T02:48:11;101845.28;;;6.45;83.86
76864;BME280;65834;52.364;9.754;2023-11-18T02:50:41;101871.97;;;6.58;83.64
76864;BME280;65834;52.364;9.754;2023-11-18T02:53:13;101874.38;;;6.61;83.74
76864;BME280;65834;52.364;9.754;2023-11-18T02:55:43;101858.78;;;6.54;84.28
76864;BME280;65834;52.364;9.754;2023-11-18T02:58:15;101855.69;;;6.59;83.70
76864;BME280;65834;52.364;9.754;2023-11-18T03:00:45;101863.47;;;6.62;83.18
76864;BME280;65834;52.364;9.754;2023-11-18T03:03:15;101863.75;;;6.59;83.06
76864;BME280;65834;52.364;9.754;2023-11-18T03:05:45;101852.94;;;6.49;83.20
76864;BME280;65834;52.364;9.754;2023-11-18T03:08:16;101852.09;;;6.49;83.31
76864;BME280;65834;52.364;9.754;2023-11-18T03:10:46;101839.03;;;6.44;83.12
76864;BME280;65834;52.364;9.754;2023-11-18T03:13:22;101841.47;;;6.47;83.45
76864;BME280;65834;52.364;9.754;2023-11-18T03:15:51;101857.31;;;6.50;83.09
76864;BME280;65834;52.364;9.754;2023-11-18T03:18:22;101851.63;;;6.44;83.45
76864;BME280;65834;52.364;9.754;2023-11-18T03:20:52;101838.38;;;6.31;83.48
76864;BME280;65834;52.364;9.754;2023-11-18T03:23:22;101843.47;;;6.34;83.74
76864;BME280;65834;52.364;9.754;2023-11-18T03:25:52;101845.56;;;6.31;83.78
76864;BME280;65834;52.364;9.754;2023-11-18T03:28:26;101878.66;;;6.31;84.00
76864;BME280;65834;52.364;9.754;2023-11-18T03:30:55;101842.69;;;6.23;84.06
76864;BME280;65834;52.364;9.754;2023-11-18T03:33:27;101863.75;;;6.38;84.46
76864;BME280;65834;52.364;9.754;2023-11-18T03:35:56;101861.78;;;6.40;84.35
76864;BME280;65834;52.364;9.754;2023-11-18T03:38:26;101862.78;;;6.39;83.81
76864;BME280;65834;52.364;9.754;2023-11-18T03:40:57;101868.16;;;6.39;84.24
76864;BME280;65834;52.364;9.754;2023-11-18T03:43:29;101846.16;;;6.34;84.12
76864;BME280;65834;52.364;9.754;2023-11-18T03:45:58;101874.44;;;6.49;84.24
76864;BME280;65834;52.364;9.754;2023-11-18T03:48:28;101849.97;;;6.32;84.04
76864;BME280;65834;52.364;9.754;2023-11-18T03:50:58;101864.00;;;6.35;84.09
76864;BME280;65834;52.364;9.754;2023-11-18T03:53:28;101863.59;;;6.40;84.17
76864;BME280;65834;52.364;9.754;2023-11-18T03:56:00;101867.88;;;6.42;84.22
76864;BME280;65834;52.364;9.754;2023-11-18T03:58:34;101865.19;;;6.42;84.27
76864;BME280;65834;52.364;9.754;2023-11-18T04:01:04;101859.59;;;6.34;84.36
76864;BME280;65834;52.364;9.754;2023-11-18T04:03:37;101838.63;;;6.28;84.35
76864;BME280;65834;52.364;9.754;2023-11-18T04:06:09;101860.09;;;6.39;84.43
76864;BME280;65834;52.364;9.754;2023-11-18T04:08:43;101858.47;;;6.37;84.70
76864;BME280;65834;52.364;9.754;2023-11-18T04:11:13;101851.44;;;6.36;84.64
76864;BME280;65834;52.364;9.754;2023-11-18T04:13:46;101834.44;;;6.35;84.27
76864;BME280;65834;52.364;9.754;2023-11-18T04:16:16;101842.25;;;6.38;84.19
76864;BME280;65834;52.364;9.754;2023-11-18T04:18:46;101836.94;;;6.27;84.27
76864;BME280;65834;52.364;9.754;2023-11-18T04:21:16;101829.59;;;6.29;84.30
76864;BME280;65834;52.364;9.754;2023-11-18T04:23:46;101824.75;;;6.23;84.32
76864;BME280;65834;52.364;9.754;2023-11-18T04:26:15;101842.63;;;6.34;84.44
76864;BME280;65834;52.364;9.754;2023-11-18T04:28:48;101848.59;;;6.37;84.60
76864;BME280;65834;52.364;9.754;2023-11-18T04:31:17;101811.34;;;6.12;84.94
76864;BME280;65834;52.364;9.754;2023-11-18T04:33:48;101822.56;;;6.17;84.97
76864;BME280;65834;52.364;9.754;2023-11-18T04:36:17;101826.72;;;6.21;84.96
76864;BME280;65834;52.364;9.754;2023-11-18T04:38:48;101839.22;;;6.32;85.01
76864;BME280;65834;52.364;9.754;2023-11-18T04:41:18;101841.91;;;6.32;85.16
76864;BME280;65834;52.364;9.754;2023-11-18T04:43:52;101824.56;;;6.15;85.29
76864;BME280;65834;52.364;9.754;2023-11-18T04:46:22;101838.97;;;6.35;85.06
76864;BME280;65834;52.364;9.754;2023-11-18T04:48:52;101830.03;;;6.34;85.22
76864;BME280;65834;52.364;9.754;2023-11-18T04:51:23;101812.25;;;6.33;84.91
76864;BME280;65834;52.364;9.754;2023-11-18T04:53:52;101828.22;;;6.35;84.95
76864;BME280;65834;52.364;9.754;2023-11-18T04:56:22;101832.34;;;6.39;84.94
76864;BME280;65834;52.364;9.754;2023-11-18T04:58:54;101829.94;;;6.36;85.06
76864;BME280;65834;52.364;9.754;2023-11-18T05:01:24;101830.63;;;6.38;85.37
76864;BME280;65834;52.364;9.754;2023-11-18T05:03:54;101810.91;;;6.28;85.33
76864;BME280;65834;52.364;9.754;2023-11-18T05:06:24;101818.44;;;6.34;85.24
76864;BME280;65834;52.364;9.754;2023-11-18T05:08:53;101819.44;;;6.33;85.34
76864;BME280;65834;52.364;9.754;2023-11-18T05:11:23;101820.75;;;6.38;85.28
76864;BME280;65834;52.364;9.754;2023-11-18T05:13:55;101826.66;;;6.32;85.21
76864;BME280;65834;52.364;9.754;2023-11-18T05:16:26;101824.16;;;6.40;84.99
76864;BME280;65834;52.364;9.754;2023-11-18T05:18:55;101816.88;;;6.31;85.25
76864;BME280;65834;52.364;9.754;2023-11-18T05:21:25;101831.50;;;6.38;85.55
76864;BME280;65834;52.364;9.754;2023-11-18T05:23:55;101822.72;;;6.36;85.35
76864;BME280;65834;52.364;9.754;2023-11-18T05:26:24;101802.84;;;6.28;85.60
76864;BME280;65834;52.364;9.754;2023-11-18T05:28:56;101814.66;;;6.36;85.68
76864;BME280;65834;52.364;9.754;2023-11-18T05:31:26;101816.34;;;6.37;85.38
76864;BME280;65834;52.364;9.754;2023-11-18T05:33:58;101817.47;;;6.35;85.50
76864;BME280;65834;52.364;9.754;2023-11-18T05:36:29;101800.16;;;6.28;85.61
76864;BME280;65834;52.364;9.754;2023-11-18T05:39:04;101810.00;;;6.38;85.42
76864;BME280;65834;52.364;9.754;2023-11-18T05:41:34;101808.56;;;6.34;85.49
76864;BME280;65834;52.364;9.754;2023-11-18T05:44:09;101782.34;;;6.27;85.48
76864;BME280;65834;52.364;9.754;2023-11-18T05:46:44;101784.00;;;6.18;85.40
76864;BME280;65834;52.364;9.754;2023-11-18T05:49:14;101763.66;;;6.25;85.53
76864;BME280;65834;52.364;9.754;2023-11-18T05:51:45;101760.28;;;6.23;85.42
76864;BME280;65834;52.364;9.754;2023-11-18T05:54:14;101752.75;;;6.17;85.20
76864;BME280;65834;52.364;9.754;2023-11-18T05:56:44;101784.25;;;6.36;85.33
76864;BME280;65834;52.364;9.754;2023-11-18T05:59:16;101766.09;;;6.28;84.97
76864;BME280;65834;52.364;9.754;2023-11-18T06:01:46;101778.03;;;6.35;84.82
76864;BME280;65834;52.364;9.754;2023-11-18T06:04:16;101784.63;;;6.31;84.75
76864;BME280;65834;52.364;9.754;2023-11-18T06:06:46;101786.00;;;6.26;84.84
76864;BME280;65834;52.364;9.754;2023-11-18T06:09:15;101766.09;;;6.08;85.04
76864;BME280;65834;52.364;9.754;2023-11-18T06:11:47;101796.31;;;6.21;85.15
76864;BME280;65834;52.364;9.754;2023-11-18T06:14:20;101772.59;;;6.05;85.37
76864;BME280;65834;52.364;9.754;2023-11-18T06:16:50;101780.25;;;6.10;85.24
76864;BME280;65834;52.364;9.754;2023-11-18T06:19:19;101785.59;;;6.10;85.13
76864;BME280;65834;52.364;9.754;2023-11-18T06:21:50;101783.44;;;6.04;85.25
76864;BME280;65834;52.364;9.754;2023-11-18T06:24:19;101784.63;;;6.11;85.25
76864;BME280;65834;52.364;9.754;2023-11-18T06:26:49;101777.53;;;5.89;85.30
76864;BME280;65834;52.364;9.754;2023-11-18T06:29:21;101771.19;;;5.90;85.35
76864;BME280;65834;52.364;9.754;2023-11-18T06:31:51;101806.63;;;6.05;85.46
76864;BME280;65834;52.364;9.754;2023-11-18T06:34:20;101747.81;;;5.70;85.52
76864;BME280;65834;52.364;9.754;2023-11-18T06:36:50;101800.81;;;5.99;85.74
76864;BME280;65834;52.364;9.754;2023-11-18T06:39:20;101808.28;;;5.96;85.72
76864;BME280;65834;52.364;9.754;2023-11-18T06:41:56;101797.06;;;5.80;85.40
76864;BME280;65834;52.364;9.754;2023-11-18T06:44:28;101775.13;;;5.75;85.38
76864;BME280;65834;52.364;9.754;2023-11-18T06:46:58;101811.34;;;5.91;85.52
76864;BME280;65834;52.364;9.754;2023-11-18T06:49:30;101801.69;;;5.89;85.35
76864;BME280;65834;52.364;9.754;2023-11-18T06:52:01;101797.31;;;5.77;85.25
76864;BME280;65834;52.364;9.754;2023-11-18T06:54:31;101808.78;;;5.90;85.23
76864;BME280;65834;52.364;9.754;2023-11-18T06:57:01;101819.63;;;5.88;85.52
76864;BME280;65834;52.364;9.754;2023-11-18T06:59:34;101802.81;;;5.75;85.00
76864;BME280;65834;52.364;9.754;2023-11-18T07:02:04;101822.22;;;5.90;85.35
76864;BME280;65834;52.364;9.754;2023-11-18T07:04:34;101776.66;;;5.57;85.16
76864;BME280;65834;52.364;9.754;2023-11-18T07:07:05;101815.00;;;5.79;85.28
76864;BME280;65834;52.364;9.754;2023-11-18T07:09:35;101805.44;;;5.66;85.54
76864;BME280;65834;52.364;9.754;2023-11-18T07:12:06;101828.19;;;5.93;85.40
76864;BME280;65834;52.364;9.754;2023-11-18T07:14:38;101792.06;;;5.75;85.49
76864;BME280;65834;52.364;9.754;2023-11-18T07:17:08;101815.59;;;5.94;85.65
76864;BME280;65834;52.364;9.754;2023-11-18T07:19:37;101814.50;;;5.96;85.58
76864;BME280;65834;52.364;9.754;2023-11-18T07:22:07;101814.63;;;5.95;85.12
76864;BME280;65834;52.364;9.754;2023-11-18T07:24:37;101827.28;;;6.04;85.39
76864;BME280;65834;52.364;9.754;2023-11-18T07:27:07;101818.28;;;5.94;85.46
76864;BME280;65834;52.364;9.754;2023-11-18T07:29:40;101777.84;;;5.64;85.44
76864;BME280;65834;52.364;9.754;2023-11-18T07:32:12;101828.47;;;6.11;85.49
76864;BME280;65834;52.364;9.754;2023-11-18T07:34:41;101821.28;;;6.12;85.60
76864;BME280;65834;52.364;9.754;2023-11-18T07:37:11;101821.38;;;6.10;85.03
76864;BME280;65834;52.364;9.754;2023-11-18T07:39:41;101815.56;;;6.05;84.78
76864;BME280;65834;52.364;9.754;2023-11-18T07:42:15;101818.59;;;6.12;85.06
76864;BME280;65834;52.364;9.754;2023-11-18T07:44:47;101823.09;;;6.11;85.05
76864;BME280;65834;52.364;9.754;2023-11-18T07:47:18;101825.03;;;6.09;85.21
76864;BME280;65834;52.364;9.754;2023-11-18T07:49:48;101838.56;;;6.19;84.88
76864;BME280;65834;52.364;9.754;2023-11-18T07:52:17;101834.44;;;6.15;84.80
76864;BME280;65834;52.364;9.754;2023-11-18T07:54:47;101830.50;;;6.19;84.69
76864;BME280;65834;52.364;9.754;2023-11-18T07:57:19;101826.22;;;6.16;84.54
76864;BME280;65834;52.364;9.754;2023-11-18T07:59:53;101790.09;;;5.88;84.52
76864;BME280;65834;52.364;9.754;2023-11-18T08:02:23;101835.53;;;6.12;84.34
76864;BME280;65834;52.364;9.754;2023-11-18T08:04:52;101829.78;;;6.17;84.39
76864;BME280;65834;52.364;9.754;2023-11-18T08:07:23;101805.78;;;6.04;84.35
76864;BME280;65834;52.364;9.754;2023-11-18T08:09:53;101835.09;;;6.28;83.75
76864;BME280;65834;52.364;9.754;2023-11-18T08:12:24;101838.19;;;6.23;84.09
76864;BME280;65834;52.364;9.754;2023-11-18T08:14:54;101829.97;;;6.25;84.29
76864;BME280;65834;52.364;9.754;2023-11-18T08:17:24;101834.13;;;6.29;84.15
76864;BME280;65834;52.364;9.754;2023-11-18T08:19:55;101827.16;;;6.26;84.04
76864;BME280;65834;52.364;9.754;2023-11-18T08:22:26;101822.06;;;6.23;84.23
76864;BME280;65834;52.364;9.754;2023-11-18T08:24:56;101822.84;;;6.35;84.09
76864;BME280;65834;52.364;9.754;2023-11-18T08:27:26;101804.19;;;6.33;84.10
76864;BME280;65834;52.364;9.754;2023-11-18T08:29:59;101793.97;;;6.27;83.72
76864;BME280;65834;52.364;9.754;2023-11-18T08:32:32;101784.25;;;6.36;83.46
76864;BME280;65834;52.364;9.754;2023-11-18T08:35:02;101799.59;;;6.45;83.24
76864;BME280;65834;52.364;9.754;2023-11-18T08:37:33;101757.31;;;6.26;82.65
76864;BME280;65834;52.364;9.754;2023-11-18T08:40:02;101782.59;;;6.44;82.37
76864;BME280;65834;52.364;9.754;2023-11-18T08:42:33;101765.31;;;6.37;82.12
76864;BME280;65834;52.364;9.754;2023-11-18T08:45:06;101794.28;;;6.54;81.64
76864;BME280;65834;52.364;9.754;2023-11-18T08:47:42;101784.06;;;6.48;82.11
76864;BME280;65834;52.364;9.754;2023-11-18T08:50:13;101792.22;;;6.47;82.23
76864;BME280;65834;52.364;9.754;2023-11-18T08:52:43;101808.31;;;6.58;82.24
76864;BME280;65834;52.364;9.754;2023-11-18T08:55:15;101785.63;;;6.51;81.70
76864;BME280;65834;52.364;9.754;2023-11-18T08:57:48;101815.41;;;6.69;81.72
76864;BME280;65834;52.364;9.754;2023-11-18T09:00:30;101811.69;;;6.60;81.29
76864;BME280;65834;52.364;9.754;2023-11-18T09:03:18;101827.75;;;6.71;81.69
76864;BME280;65834;52.364;9.754;2023-11-18T09:05:52;101808.84;;;6.62;81.44
76864;BME280;65834;52.364;9.754;2023-11-18T09:08:32;101821.38;;;6.72;81.56
76864;BME280;65834;52.364;9.754;2023-11-18T09:11:03;101813.31;;;6.72;81.75
76864;BME280;65834;52.364;9.754;2023-11-18T09:13:34;101797.56;;;6.58;81.55
76864;BME280;65834;52.364;9.754;2023-11-18T09:16:08;101799.88;;;6.72;81.88
76864;BME280;65834;52.364;9.754;2023-11-18T09:18:39;101797.94;;;6.84;81.42
76864;BME280;65834;52.364;9.754;2023-11-18T09:21:12;101797.56;;;6.88;81.28
76864;BME280;65834;52.364;9.754;2023-11-18T09:23:46;101781.53;;;6.87;81.03
76864;BME280;65834;52.364;9.754;2023-11-18T09:26:16;101756.91;;;6.82;80.89
76864;BME280;65834;52.364;9.754;2023-11-18T09:28:48;101774.22;;;6.89;80.61
76864;BME280;65834;52.364;9.754;2023-11-18T09:31:22;101779.75;;;6.97;80.42
76864;BME280;65834;52.364;9.754;2023-11-18T09:33:52;101789.09;;;7.02;80.07
76864;BME280;65834;52.364;9.754;2023-11-18T09:36:24;101776.91;;;6.98;79.98
76864;BME280;65834;52.364;9.754;2023-11-18T09:38:55;101757.06;;;6.90;79.95
76864;BME280;65834;52.364;9.754;2023-11-18T09:41:26;101780.91;;;7.04;79.81
76864;BME280;65834;52.364;9.754;2023-11-18T09:43:56;101783.19;;;7.08;80.12
76864;BME280;65834;52.364;9.754;2023-11-18T09:46:33;101772.28;;;7.00;79.92
76864;BME280;65834;52.364;9.754;2023-11-18T09:49:17;101783.34;;;7.07;80.10
76864;BME280;65834;52.364;9.754;2023-11-18T09:51:57;101780.38;;;7.10;79.49
76864;BME280;65834;52.364;9.754;2023-11-18T09:54:31;101788.44;;;7.10;79.38
76864;BME280;65834;52.364;9.754;2023-11-18T09:57:08;101788.56;;;7.08;79.58
76864;BME280;65834;52.364;9.754;2023-11-18T09:59:49;101792.13;;;7.09;79.99
76864;BME280;65834;52.364;9.754;2023-11-18T10:02:25;101798.06;;;7.13;79.48
76864;BME280;65834;52.364;9.754;2023-11-18T10:04:56;101771.28;;;7.11;79.23
76864;BME280;65834;52.364;9.754;2023-11-18T10:07:29;101769.09;;;7.26;79.23
76864;BME280;65834;52.364;9.754;2023-11-18T10:10:02;101746.16;;;7.31;78.54
76864;BME280;65834;52.364;9.754;2023-11-18T10:12:41;101716.69;;;7.30;77.99
76864;BME280;65834;52.364;9.754;2023-11-18T10:15:14;101743.63;;;7.49;77.52
76864;BME280;65834;52.364;9.754;2023-11-18T10:17:46;101733.44;;;7.52;77.54
76864;BME280;65834;52.364;9.754;2023-11-18T10:20:45;101729.63;;;7.64;77.18
76864;BME280;65834;52.364;9.754;2023-11-18T10:23:18;101739.66;;;7.82;76.86
76864;BME280;65834;52.364;9.754;2023-11-18T10:25:51;101742.81;;;7.87;74.88
76864;BME280;65834;52.364;9.754;2023-11-18T10:28:25;101736.28;;;7.89;73.99
76864;BME280;65834;52.364;9.754;2023-11-18T10:31:00;101723.38;;;7.93;74.48
76864;BME280;65834;52.364;9.754;2023-11-18T10:33:36;101701.38;;;7.97;74.34
76864;BME280;65834;52.364;9.754;2023-11-18T10:36:17;101710.88;;;8.01;72.92
76864;BME280;65834;52.364;9.754;2023-11-18T10:38:50;101675.75;;;7.93;71.66
76864;BME280;65834;52.364;9.754;2023-11-18T10:41:23;101721.34;;;8.24;71.23
76864;BME280;65834;52.364;9.754;2023-11-18T10:44:05;101712.09;;;8.26;71.02
76864;BME280;65834;52.364;9.754;2023-11-18T10:46:36;101728.00;;;8.29;70.49
76864;BME280;65834;52.364;9.754;2023-11-18T10:49:09;101716.38;;;8.29;70.69
76864;BME280;65834;52.364;9.754;2023-11-18T10:51:39;101699.63;;;8.25;70.84
76864;BME280;65834;52.364;9.754;2023-11-18T10:54:09;101706.16;;;8.32;70.90
76864;BME280;65834;52.364;9.754;2023-11-18T10:56:48;101678.94;;;8.16;69.53
76864;BME280;65834;52.364;9.754;2023-11-18T10:59:23;101677.50;;;8.22;69.65
76864;BME280;65834;52.364;9.754;2023-11-18T11:01:53;101666.59;;;8.23;69.88
76864;BME280;65834;52.364;9.754;2023-11-18T11:04:42;101655.00;;;8.03;69.84
76864;BME280;65834;52.364;9.754;2023-11-18T11:07:12;101661.31;;;8.22;69.59
76864;BME280;65834;52.364;9.754;2023-11-18T11:09:45;101663.31;;;8.19;69.57
76864;BME280;65834;52.364;9.754;2023-11-18T11:12:17;101668.00;;;8.27;69.67
76864;BME280;65834;52.364;9.754;2023-11-18T11:14:59;101652.94;;;8.25;69.71
76864;BME280;65834;52.364;9.754;2023-11-18T11:17:31;101636.78;;;8.25;69.70
76864;BME280;65834;52.364;9.754;2023-11-18T11:20:09;101641.03;;;8.27;69.18
76864;BME280;65834;52.364;9.754;2023-11-18T11:22:55;101641.16;;;8.26;67.86
76864;BME280;65834;52.364;9.754;2023-11-18T11:25:35;101639.19;;;8.28;67.56
76864;BME280;65834;52.364;9.754;2023-11-18T11:28:13;101638.34;;;8.27;67.53
76864;BME280;65834;52.364;9.754;2023-11-18T11:30:50;101643.59;;;8.29;66.15
76864;BME280;65834;52.364;9.754;2023-11-18T11:33:28;101638.78;;;8.23;66.20
76864;BME280;65834;52.364;9.754;2023-11-18T11:36:09;101618.66;;;8.17;64.92
76864;BME280;65834;52.364;9.754;2023-11-18T11:38:43;101623.75;;;8.20;65.93
76864;BME280;65834;52.364;9.754;2023-11-18T11:41:14;101623.59;;;8.22;65.43
76864;BME280;65834;52.364;9.754;2023-11-18T11:43:52;101631.97;;;8.18;65.71
76864;BME280;65834;52.364;9.754;2023-11-18T11:46:28;101621.06;;;8.20;65.38
76864;BME280;65834;52.364;9.754;2023-11-18T11:49:02;101628.59;;;8.16;65.77
76864;BME280;65834;52.364;9.754;2023-11-18T11:51:48;101621.91;;;8.21;65.80
76864;BME280;65834;52.364;9.754;2023-11-18T11:54:24;101620.91;;;8.22;65.56
76864;BME280;65834;52.364;9.754;2023-11-18T11:56:56;101619.34;;;8.29;65.75
76864;BME280;65834;52.364;9.754;2023-11-18T11:59:36;101587.00;;;8.19;65.40
76864;BME280;65834;52.364;9.754;2023-11-18T12:02:25;101578.94;;;8.19;65.40
76864;BME280;65834;52.364;9.754;2023-11-18T12:04:56;101587.72;;;8.21;65.56
76864;BME280;65834;52.364;9.754;2023-11-18T12:07:39;101582.19;;;8.23;66.01
76864;BME280;65834;52.364;9.754;2023-11-18T12:10:09;101568.31;;;8.17;65.30
76864;BME280;65834;52.364;9.754;2023-11-18T12:12:48;101572.25;;;8.23;66.04
76864;BME280;65834;52.364;9.754;2023-11-18T12:18:22;101589.13;;;8.25;66.24
76864;BME280;65834;52.364;9.754;2023-11-18T12:20:51;101585.44;;;8.26;65.45
76864;BME280;65834;52.364;9.754;2023-11-18T12:23:27;101580.75;;;8.28;66.40
76864;BME280;65834;52.364;9.754;2023-11-18T12:25:57;101583.72;;;8.25;66.34
76864;BME280;65834;52.364;9.754;2023-11-18T12:28:30;101578.63;;;8.22;66.11
76864;BME280;65834;52.364;9.754;2023-11-18T12:31:04;101572.38;;;8.22;66.32
76864;BME280;65834;52.364;9.754;2023-11-18T12:34:02;101572.25;;;8.23;66.70
76864;BME280;65834;52.364;9.754;2023-11-18T12:42:58;101577.78;;;8.22;67.47
76864;BME280;65834;52.364;9.754;2023-11-18T12:45:58;101579.66;;;8.21;67.46
76864;BME280;65834;52.364;9.754;2023-11-18T12:48:37;101556.09;;;8.23;67.87
76864;BME280;65834;52.364;9.754;2023-11-18T12:51:13;101559.06;;;8.30;67.73
76864;BME280;65834;52.364;9.754;2023-11-18T12:53:49;101553.38;;;8.33;67.52
76864;BME280;65834;52.364;9.754;2023-11-18T12:56:20;101552.81;;;8.29;67.70
76864;BME280;65834;52.364;9.754;2023-11-18T12:58:53;101552.53;;;8.23;67.89
76864;BME280;65834;52.364;9.754;2023-11-18T13:01:23;101547.44;;;8.19;68.45
76864;BME280;65834;52.364;9.754;2023-11-18T13:03:54;101546.75;;;8.17;68.31
76864;BME280;65834;52.364;9.754;2023-11-18T13:06:24;101557.25;;;8.21;68.74
76864;BME280;65834;52.364;9.754;2023-11-18T13:08:55;101550.00;;;8.21;68.46
76864;BME280;65834;52.364;9.754;2023-11-18T13:11:28;101538.38;;;8.21;68.59
76864;BME280;65834;52.364;9.754;2023-11-18T13:14:00;101535.50;;;8.22;68.55
76864;BME280;65834;52.364;9.754;2023-11-18T13:16:31;101543.16;;;8.27;68.66
76864;BME280;65834;52.364;9.754;2023-11-18T13:19:02;101528.88;;;8.16;68.78
76864;BME280;65834;52.364;9.754;2023-11-18T13:21:33;101545.84;;;8.27;68.82
76864;BME280;65834;52.364;9.754;2023-11-18T13:24:04;101538.22;;;8.22;69.03
76864;BME280;65834;52.364;9.754;2023-11-18T13:26:35;101532.81;;;8.22;69.08
76864;BME280;65834;52.364;9.754;2023-11-18T13:29:07;101536.84;;;8.18;69.01
76864;BME280;65834;52.364;9.754;2023-11-18T13:31:37;101525.88;;;8.19;69.20
76864;BME280;65834;52.364;9.754;2023-11-18T13:34:07;101525.34;;;8.16;69.10
76864;BME280;65834;52.364;9.754;2023-11-18T13:36:37;101523.66;;;8.15;69.32